Etusivu
METAR-TAF:

METAR-TAF

Lentoasemat :

St. Paul Downtown Airport (Holman Field)

Saint Paul, Minnesota, Yhdysvallat

Leveyspiiri: 44-55-49N, Pituuspiiri: 093-02-53W, korkeus merenpinnasta: 214 m

Tämänhetkinen sää

Tämä raportti tehtiin 1 tunti ja 6 minuuttia sitten, kello 09.53 UTC
Tuuli 11 kn luoteesta
Lämpötila -7°C
Kosteus 79%
Ilmanpaine 1019 hPa
Näkyvyys: 16.1 km
Pilvistä 5000 ft:n korkeudessa

METAR: KSTP 180953Z AUTO 31011KT 10SM OVC050 M07/M10 A3010 RMK AO2 SLP200 T10671100 $

Aika: 04:59 (10:59 UTC)


TAF: puuttuu

Säähavainnot ja -ennusteet yli 4000 lentoasemalta (METAR- ja TAF-raportit).

Käytössä olevat sääasemat on merkitty karttaan keltaisilla ja punaisilla pisteillä.

Aseta hiiri pisteen päälle nähdäksesi sääaseman nimen.

Klikkaa sitten nähdäksesi säähavainnot ja -ennusteet.

Kartan vaihtaminen: klikkaa mustalla rastilla varustettuja vihreitä pisteitä, niin voit zoomata sisään; viivalla varustettua vihreää pistettä, niin voit zoomata ulos tai vihreitä nuolia, niin pääset viereisille kartoille.


METAR-TAF: